Time;durP1;ratioP1;P1;durP2;ratioP2;P2;SDS_P1;SDS_P2;PMS_P1;PMS_P2;Temp;Humidity;BMP_temperature;BMP_pressure;BME280_temperature;BME280_humidity;BME280_pressure;Samples;Min_cycle;Max_cycle;Signal;HPM_P1;HPM_P2
2022/08/11 00:00:38;;;;;;;9.37;4.77;;;;;;;17.17;73.45;102095.19;4984951;28;20038;-77
2022/08/11 00:03:07;;;;;;;8.37;4.70;;;;;;;17.14;73.22;102090.19;5003651;28;20576;-77
2022/08/11 00:05:43;;;;;;;9.37;5.07;;;;;;;17.19;72.64;102093.91;5005475;28;20378;-77
2022/08/11 00:08:10;;;;;;;8.73;4.50;;;;;;;16.99;74.45;102087.78;5007869;28;20042;-79
2022/08/11 00:10:37;;;;;;;16.57;4.80;;;;;;;17.03;74.56;102089.00;5008468;28;20041;-78
2022/08/11 00:13:06;;;;;;;11.10;4.83;;;;;;;16.86;74.83;102085.97;5007684;28;20041;-78
2022/08/11 00:15:41;;;;;;;9.57;4.07;;;;;;;17.07;71.89;102078.44;5007926;28;20175;-79
2022/08/11 00:18:08;;;;;;;6.77;4.60;;;;;;;16.87;73.75;102083.00;5007697;28;20128;-78
2022/08/11 00:20:38;;;;;;;7.20;4.40;;;;;;;16.79;74.37;102091.50;4988686;28;20156;-77
2022/08/11 00:23:44;;;;;;;7.80;4.30;;;;;;;16.90;73.32;102083.66;5007435;28;20038;-77
2022/08/11 00:26:12;;;;;;;12.97;4.60;;;;;;;16.86;75.04;102078.59;4987646;28;20814;-77
2022/08/11 00:28:38;;;;;;;7.30;4.60;;;;;;;16.77;74.29;102079.09;5007022;28;20054;-77
2022/08/11 00:31:06;;;;;;;8.03;4.53;;;;;;;16.65;74.52;102085.28;5007417;28;20042;-77
2022/08/11 00:33:40;;;;;;;5.90;3.93;;;;;;;16.77;73.23;102076.34;5007471;28;20075;-78
2022/08/11 00:36:07;;;;;;;7.95;4.32;;;;;;;16.77;74.85;102084.56;5006946;28;20118;-78
2022/08/11 00:38:36;;;;;;;7.07;4.80;;;;;;;16.78;74.07;102086.25;5007345;28;20038;-77
2022/08/11 00:41:27;;;;;;;7.43;4.77;;;;;;;16.74;73.85;102085.00;5007196;28;20409;-78
2022/08/11 00:44:11;;;;;;;7.23;5.33;;;;;;;16.61;74.87;102084.06;5007333;28;20362;-77
2022/08/11 00:47:04;;;;;;;6.28;5.13;;;;;;;16.56;75.17;102078.41;5007004;28;20128;-77
2022/08/11 00:49:47;;;;;;;6.93;4.80;;;;;;;16.48;76.24;102082.28;5007025;28;20398;-78
2022/08/11 00:52:24;;;;;;;5.70;5.00;;;;;;;16.50;75.46;102085.59;5007400;28;20171;-78
2022/08/11 00:55:02;;;;;;;6.93;5.03;;;;;;;16.53;75.74;102084.34;4987362;28;20371;-79
2022/08/11 00:58:24;;;;;;;7.57;5.23;;;;;;;16.45;75.56;102076.41;5007248;28;20565;-77
2022/08/11 01:01:08;;;;;;;9.90;5.43;;;;;;;16.34;75.60;102073.28;4931138;28;20059;-80
2022/08/11 01:04:08;;;;;;;10.27;5.70;;;;;;;16.42;75.58;102083.13;4930213;29;20198;-78
2022/08/11 01:06:48;;;;;;;6.83;5.37;;;;;;;16.23;77.16;102074.00;4999507;28;20588;-78
2022/08/11 01:09:19;;;;;;;8.60;5.70;;;;;;;16.18;76.36;102077.41;4990594;28;20045;-77
2022/08/11 01:12:03;;;;;;;8.90;5.40;;;;;;;15.97;77.86;102083.19;5006490;28;20038;-77
2022/08/11 01:15:04;;;;;;;8.52;5.15;;;;;;;16.12;76.25;102077.44;5005853;28;21440;-78
2022/08/11 01:18:01;;;;;;;9.73;5.40;;;;;;;16.00;78.02;102075.38;5006945;28;20108;-80
2022/08/11 01:20:42;;;;;;;9.27;5.63;;;;;;;15.96;77.88;102076.88;4962905;28;20068;-77
2022/08/11 01:23:16;;;;;;;9.27;6.10;;;;;;;15.84;78.90;102081.34;5006373;28;20042;-77
2022/08/11 01:25:53;;;;;;;9.00;6.32;;;;;;;15.94;76.60;102089.09;5007123;28;20041;-77
2022/08/11 01:28:46;;;;;;;8.13;6.20;;;;;;;15.81;77.89;102090.00;4988852;28;20046;-77
2022/08/11 01:31:46;;;;;;;9.70;6.17;;;;;;;15.81;77.68;102090.00;5006360;28;20489;-78
2022/08/11 01:34:49;;;;;;;10.30;6.00;;;;;;;15.85;75.99;102088.50;5006813;28;20066;-78
2022/08/11 01:37:56;;;;;;;8.97;6.03;;;;;;;15.79;77.52;102098.38;5006209;28;20487;-78
2022/08/11 01:41:05;;;;;;;8.93;6.07;;;;;;;15.75;77.43;102088.06;5006354;28;20060;-79
2022/08/11 01:46:29;;;;;;;9.97;5.60;;;;;;;15.69;77.83;102090.66;5005892;28;20248;-77
2022/08/11 01:49:32;;;;;;;10.30;6.20;;;;;;;15.74;77.38;102087.25;5005658;28;20034;-77
2022/08/11 01:52:19;;;;;;;8.83;6.57;;;;;;;15.65;78.16;102083.06;4988177;28;20045;-77
2022/08/11 01:55:09;;;;;;;7.40;6.10;;;;;;;15.69;78.59;102076.97;4986970;28;20901;-78
2022/08/11 01:57:43;;;;;;;9.77;6.20;;;;;;;15.53;79.60;102083.75;5006002;28;20038;-80
2022/08/11 02:00:17;;;;;;;7.22;6.00;;;;;;;15.65;78.81;102081.19;4986754;28;20038;-78
2022/08/11 02:02:55;;;;;;;7.20;5.90;;;;;;;15.52;78.89;102079.34;5005543;28;20045;-78
2022/08/11 02:05:45;;;;;;;7.50;6.00;;;;;;;15.53;79.29;102091.13;5005827;28;20409;-78
2022/08/11 02:08:54;;;;;;;6.80;6.10;;;;;;;15.50;79.82;102086.91;5005774;28;20701;-79
2022/08/11 02:11:35;;;;;;;8.93;6.20;;;;;;;15.56;79.13;102087.09;4918929;29;20047;-77
2022/08/11 02:14:22;;;;;;;9.87;6.07;;;;;;;15.48;78.51;102090.91;4922292;29;20178;-80
2022/08/11 02:17:03;;;;;;;7.30;6.10;;;;;;;15.45;79.74;102091.31;4978257;28;20045;-78
2022/08/11 02:26:51;;;;;;;8.53;6.43;;;;;;;15.35;78.95;102091.78;5005400;28;20057;-78
2022/08/11 02:29:22;;;;;;;6.53;5.90;;;;;;;15.20;80.19;102094.75;4968292;28;20041;-78
2022/08/11 02:35:31;;;;;;;7.40;6.00;;;;;;;15.19;79.82;102085.72;5005190;28;20045;-78
2022/08/11 02:38:07;;;;;;;7.53;6.47;;;;;;;15.11;80.33;102080.47;5005415;28;20389;-78
2022/08/11 02:40:47;;;;;;;8.80;6.30;;;;;;;15.12;79.99;102073.97;4987283;28;20037;-78
2022/08/11 02:43:27;;;;;;;11.70;6.73;;;;;;;15.12;80.49;102078.59;5005094;28;20060;-77
2022/08/11 02:46:14;;;;;;;8.77;6.47;;;;;;;15.19;79.67;102082.16;5005456;28;20185;-78
2022/08/11 02:52:13;;;;;;;8.73;6.23;;;;;;;15.18;79.60;102081.31;5005181;28;20194;-78
2022/08/11 02:55:02;;;;;;;7.37;6.07;;;;;;;15.06;79.98;102074.00;4984962;28;20045;-77
2022/08/11 02:57:50;;;;;;;7.87;6.30;;;;;;;15.12;79.62;102075.84;5005118;28;20107;-77
2022/08/11 03:00:17;;;;;;;8.73;6.50;;;;;;;15.01;80.33;102082.78;5004515;28;20561;-78
2022/08/11 03:02:49;;;;;;;7.73;6.20;;;;;;;15.07;80.18;102081.09;5003836;28;21476;-80
2022/08/11 03:05:20;;;;;;;8.30;5.80;;;;;;;14.93;80.87;102081.13;5005076;28;20041;-78
2022/08/11 03:08:05;;;;;;;8.33;5.60;;;;;;;14.99;80.50;102079.44;5004303;28;20033;-77
2022/08/11 03:17:20;;;;;;;8.57;6.10;;;;;;;14.93;80.10;102081.13;5003728;28;20212;-78
2022/08/11 03:19:58;;;;;;;8.80;5.83;;;;;;;14.87;81.04;102086.59;5004225;28;20056;-79
2022/08/11 03:22:37;;;;;;;12.03;6.17;;;;;;;14.75;81.84;102078.19;5004502;28;20088;-77
2022/08/11 03:25:11;;;;;;;8.70;6.03;;;;;;;14.63;81.98;102076.09;4986029;28;21661;-79
2022/08/11 03:27:57;;;;;;;9.43;6.20;;;;;;;14.70;82.40;102076.09;5004477;28;20034;-78
2022/08/11 03:30:40;;;;;;;8.70;5.90;;;;;;;14.66;81.55;102078.41;5004811;28;20099;-77
2022/08/11 03:36:26;;;;;;;8.13;5.90;;;;;;;14.57;82.04;102082.34;5005361;28;20056;-77
2022/08/11 03:39:07;;;;;;;9.53;5.47;;;;;;;14.52;82.22;102079.41;5003182;28;21401;-77
2022/08/11 03:41:44;;;;;;;9.13;6.20;;;;;;;14.48;82.85;102073.53;5007637;28;20543;-78
2022/08/11 03:44:20;;;;;;;8.23;6.20;;;;;;;14.46;82.73;102074.78;5008518;28;20124;-77
2022/08/11 03:47:21;;;;;;;9.20;6.30;;;;;;;14.45;82.63;102068.47;5006967;28;20064;-79
2022/08/11 03:49:55;;;;;;;10.13;6.23;;;;;;;14.49;82.54;102063.47;5007691;28;20871;-79
2022/08/11 03:52:45;;;;;;;9.30;5.72;;;;;;;14.47;82.43;102076.44;5008285;28;20094;-77
2022/08/11 03:55:29;;;;;;;8.43;6.03;;;;;;;14.37;82.04;102076.03;5007555;28;20051;-78
2022/08/11 03:58:12;;;;;;;8.27;6.40;;;;;;;14.37;82.22;102070.56;5008326;28;20725;-80
2022/08/11 04:00:46;;;;;;;8.13;6.20;;;;;;;14.30;83.02;102073.28;5006979;28;21589;-78
2022/08/11 04:03:20;;;;;;;37.45;8.35;;;;;;;14.25;83.49;102073.06;4991990;28;20124;-78
2022/08/11 04:06:11;;;;;;;24.88;7.53;;;;;;;14.33;83.27;102071.00;5007855;28;20033;-79
2022/08/11 04:09:01;;;;;;;19.20;7.27;;;;;;;14.24;83.58;102072.22;5007045;28;20705;-78
2022/08/11 04:11:42;;;;;;;14.23;6.37;;;;;;;14.24;83.25;102064.06;5008093;28;20030;-78
2022/08/11 04:17:56;;;;;;;9.97;6.40;;;;;;;14.28;82.26;102068.03;5008025;28;21154;-78
2022/08/11 04:20:28;;;;;;;11.80;6.97;;;;;;;14.21;82.83;102071.78;5008437;28;20034;-78
2022/08/11 04:23:31;;;;;;;12.87;6.80;;;;;;;14.27;82.50;102070.97;4989152;28;20029;-77
2022/08/11 04:26:41;;;;;;;9.50;6.87;;;;;;;14.13;83.39;102070.94;5006644;28;20038;-79
2022/08/11 04:29:41;;;;;;;10.40;6.77;;;;;;;14.11;83.60;102064.03;4943826;28;20788;-78
2022/08/11 04:32:25;;;;;;;8.27;6.33;;;;;;;14.10;83.47;102065.91;4971719;28;20081;-80
2022/08/11 04:35:16;;;;;;;9.10;6.50;;;;;;;14.10;83.37;102075.97;5007173;28;20176;-78
2022/08/11 04:38:07;;;;;;;9.97;6.03;;;;;;;14.01;83.57;102078.88;4959973;28;20378;-81
2022/08/11 04:40:54;;;;;;;8.40;6.07;;;;;;;14.08;83.48;102075.34;5007534;28;20041;-78
2022/08/11 04:43:58;;;;;;;10.27;6.03;;;;;;;14.05;84.16;102078.44;5007713;28;20034;-78
2022/08/11 04:46:47;;;;;;;8.27;6.30;;;;;;;14.07;83.68;102076.38;5007082;28;20045;-78
2022/08/11 05:01:40;;;;;;;9.03;6.30;;;;;;;14.10;85.72;102065.06;5006545;28;20096;-79
2022/08/11 05:07:20;;;;;;;9.38;6.45;;;;;;;14.14;86.19;102072.63;5006677;28;20095;-77
2022/08/11 05:10:22;;;;;;;7.70;6.13;;;;;;;14.29;86.28;102082.50;5006232;28;20045;-77
2022/08/11 05:12:54;;;;;;;9.27;6.23;;;;;;;14.26;86.54;102077.47;5006392;28;20116;-77
2022/08/11 05:36:07;;;;;;;10.13;7.10;;;;;;;15.09;87.77;102071.66;5006044;28;20642;-77
2022/08/11 05:58:01;;;;;;;13.27;8.37;;;;;;;16.20;81.55;102082.66;5006033;28;20088;-79
2022/08/11 06:00:28;;;;;;;10.83;7.53;;;;;;;16.44;80.75;102085.66;5006204;28;20567;-80
2022/08/11 06:03:02;;;;;;;12.77;7.77;;;;;;;16.56;78.48;102089.34;4987854;28;20065;-77
2022/08/11 06:05:40;;;;;;;10.03;7.73;;;;;;;16.82;75.44;102082.84;5005965;28;20117;-78
2022/08/11 06:08:07;;;;;;;11.30;7.50;;;;;;;17.14;74.62;102088.25;5004569;28;20044;-78
2022/08/11 06:10:35;;;;;;;10.87;7.07;;;;;;;17.35;74.01;102097.13;5004599;28;20544;-78
2022/08/11 06:13:02;;;;;;;11.93;7.67;;;;;;;17.48;73.18;102090.66;4986470;28;20030;-79
2022/08/11 06:15:31;;;;;;;12.73;7.53;;;;;;;17.68;70.75;102085.78;4986506;28;20382;-77
2022/08/11 06:17:58;;;;;;;13.30;7.43;;;;;;;17.83;71.00;102081.84;5004936;28;20042;-76
2022/08/11 06:20:24;;;;;;;10.33;7.00;;;;;;;18.01;71.74;102095.53;5005154;28;20433;-78
2022/08/11 06:23:00;;;;;;;13.07;7.17;;;;;;;18.16;70.62;102092.38;5005396;28;20592;-78
2022/08/11 06:25:31;;;;;;;12.27;6.90;;;;;;;18.36;69.19;102091.25;5005012;28;20104;-77
2022/08/11 06:27:58;;;;;;;11.90;7.20;;;;;;;18.52;69.07;102103.47;5004945;28;20033;-77
2022/08/11 06:30:41;;;;;;;8.73;6.07;;;;;;;18.66;68.97;102096.69;5004559;28;20089;-77
2022/08/11 06:33:29;;;;;;;11.33;6.80;;;;;;;18.85;68.27;102099.38;5005194;28;20053;-77
2022/08/11 06:36:11;;;;;;;11.53;6.70;;;;;;;18.98;67.41;102092.81;4974723;28;20042;-77
2022/08/11 06:38:48;;;;;;;9.70;6.30;;;;;;;19.17;66.72;102094.38;5002217;28;20502;-78
2022/08/11 06:41:38;;;;;;;10.83;6.73;;;;;;;19.30;65.01;102092.47;5004302;28;20742;-77
2022/08/11 06:44:12;;;;;;;12.27;6.93;;;;;;;19.46;63.92;102090.88;5005216;28;20033;-78
2022/08/11 06:46:50;;;;;;;10.53;6.20;;;;;;;19.62;63.19;102097.56;5004699;28;20187;-77
2022/08/11 06:52:12;;;;;;;10.73;6.10;;;;;;;19.91;62.31;102106.72;5004198;28;20049;-77
2022/08/11 06:54:47;;;;;;;8.60;6.20;;;;;;;20.04;61.58;102100.91;5004914;28;20555;-77
2022/08/11 07:03:14;;;;;;;10.55;6.03;;;;;;;20.47;59.37;102098.69;4919497;29;20047;-78
2022/08/11 07:06:12;;;;;;;8.43;5.57;;;;;;;20.65;60.82;102105.06;4992571;28;20649;-77
2022/08/11 07:29:13;;;;;;;11.32;6.07;;;;;;;22.12;54.70;102098.31;5004147;28;20069;-80
2022/08/11 07:31:45;;;;;;;10.38;5.68;;;;;;;22.24;52.97;102104.53;4985760;28;20037;-79
2022/08/11 07:34:26;;;;;;;11.93;5.95;;;;;;;22.39;52.80;102100.31;5005032;28;20034;-81
2022/08/11 07:36:55;;;;;;;9.48;5.30;;;;;;;22.57;51.76;102110.13;5003788;28;20046;-81
2022/08/11 07:39:24;;;;;;;10.57;5.22;;;;;;;22.63;51.09;102098.03;5005149;28;20373;-80
2022/08/11 07:41:51;;;;;;;7.35;5.10;;;;;;;22.84;51.33;102109.25;5004740;28;20026;-81
2022/08/11 07:44:17;;;;;;;9.40;5.25;;;;;;;22.89;50.10;102114.81;5003749;28;20425;-82
2022/08/11 07:52:29;;;;;;;8.30;5.05;;;;;;;23.47;50.76;102105.81;5004420;28;20397;-80
2022/08/11 07:54:58;;;;;;;6.57;5.15;;;;;;;23.54;48.44;102106.41;5004838;28;20091;-81
2022/08/11 08:19:23;;;;;;;9.32;5.00;;;;;;;24.55;46.97;102115.31;5004218;28;20063;-81
2022/08/11 08:21:49;;;;;;;12.27;5.32;;;;;;;24.67;46.21;102105.91;5004474;28;20083;-80
2022/08/11 08:24:15;;;;;;;10.70;5.05;;;;;;;24.63;46.16;102102.88;4986696;28;20060;-79
2022/08/11 08:26:59;;;;;;;7.97;4.70;;;;;;;24.89;45.67;102106.47;5005375;28;20075;-82
2022/08/11 08:32:10;;;;;;;9.95;5.13;;;;;;;25.30;43.50;102107.53;5006550;28;20007;-81
2022/08/11 08:34:39;;;;;;;9.68;4.90;;;;;;;25.53;41.51;102115.25;4989803;28;20037;-80
2022/08/11 08:37:06;;;;;;;10.63;4.97;;;;;;;25.70;41.22;102105.75;5008074;28;20067;-80
2022/08/11 08:39:36;;;;;;;8.88;4.57;;;;;;;26.04;40.82;102103.09;5007534;28;20029;-82
2022/08/11 08:42:06;;;;;;;7.55;4.82;;;;;;;26.30;42.50;102111.25;4988631;28;20428;-82
2022/08/11 08:44:34;;;;;;;7.68;4.47;;;;;;;26.66;40.48;102101.84;5007848;28;20124;-82
2022/08/11 08:47:04;;;;;;;7.03;4.03;;;;;;;26.83;40.52;102113.38;4986638;28;20025;-82
2022/08/11 08:49:33;;;;;;;7.10;4.57;;;;;;;27.14;39.05;102104.75;5006862;28;20761;-81
2022/08/11 08:52:03;;;;;;;5.90;3.80;;;;;;;27.62;39.12;102103.94;5007050;28;20064;-80
2022/08/11 08:54:35;;;;;;;10.90;4.60;;;;;;;27.86;38.07;102106.69;5007041;28;20052;-81
2022/08/11 08:57:04;;;;;;;10.60;4.30;;;;;;;28.36;36.65;102106.28;5006988;28;20033;-80
2022/08/11 08:59:32;;;;;;;9.68;4.13;;;;;;;28.54;37.18;102109.34;5007030;28;20040;-81
2022/08/11 09:02:01;;;;;;;7.53;3.97;;;;;;;28.56;36.89;102107.06;5006983;28;20041;-81
2022/08/11 09:04:28;;;;;;;9.25;4.05;;;;;;;28.84;35.13;102113.59;5006911;28;20038;-80
2022/08/11 09:06:57;;;;;;;8.65;3.67;;;;;;;28.96;35.63;102110.34;5006675;28;20065;-83
2022/08/11 09:09:23;;;;;;;7.78;3.90;;;;;;;29.28;34.20;102111.41;5006210;28;20408;-82
2022/08/11 09:11:49;;;;;;;8.73;3.95;;;;;;;29.45;33.21;102108.84;5006766;28;20053;-81
2022/08/11 09:14:22;;;;;;;7.40;3.50;;;;;;;29.74;34.77;102104.06;4996544;28;20079;-80
2022/08/11 09:16:49;;;;;;;7.82;3.38;;;;;;;30.20;33.61;102107.84;5006343;28;20670;-80
2022/08/11 09:19:17;;;;;;;7.97;3.33;;;;;;;30.52;34.48;102105.97;5007000;28;20379;-82
2022/08/11 09:21:44;;;;;;;6.72;3.67;;;;;;;30.70;31.97;102099.34;5006106;28;20070;-83
2022/08/11 09:27:01;;;;;;;6.72;3.63;;;;;;;30.97;31.05;102106.75;5004053;28;20199;-81
2022/08/11 09:29:28;;;;;;;4.85;3.60;;;;;;;31.03;30.38;102101.03;5004895;28;20065;-81
2022/08/11 09:31:54;;;;;;;8.70;3.67;;;;;;;31.22;32.13;102100.78;5005337;28;20033;-83
2022/08/11 09:34:21;;;;;;;8.52;3.55;;;;;;;30.88;31.47;102093.84;5005292;28;20033;-81
2022/08/11 09:42:21;;;;;;;9.38;3.55;;;;;;;31.05;30.92;102085.59;5003304;28;20084;-81
2022/08/11 09:44:47;;;;;;;8.00;3.30;;;;;;;31.14;31.96;102080.84;5004378;28;20594;-82
2022/08/11 09:47:28;;;;;;;5.00;3.53;;;;;;;31.55;30.00;102092.84;5003666;28;20669;-82
2022/08/11 09:50:01;;;;;;;7.05;3.08;;;;;;;31.69;30.86;102089.09;5003852;28;20084;-82
2022/08/11 09:52:29;;;;;;;8.27;3.30;;;;;;;31.77;29.79;102082.69;5003956;28;20034;-81
2022/08/11 09:54:55;;;;;;;6.25;2.95;;;;;;;31.90;29.26;102078.09;5004125;28;20091;-85
2022/08/11 10:00:08;;;;;;;3.40;3.10;;;;;;;32.24;29.44;102074.47;5005388;28;20100;-81
2022/08/11 10:02:42;;;;;;;7.93;3.28;;;;;;;32.22;28.89;102085.22;5004757;28;20143;-81
2022/08/11 10:07:55;;;;;;;7.15;2.95;;;;;;;32.46;27.88;102072.66;5004494;28;20155;-83
2022/08/11 10:10:23;;;;;;;5.75;3.00;;;;;;;32.62;29.49;102082.19;5004443;28;20072;-79
2022/08/11 10:12:58;;;;;;;7.93;3.22;;;;;;;32.73;27.50;102077.06;5004316;28;20041;-79
2022/08/11 10:15:33;;;;;;;4.55;2.90;;;;;;;32.74;28.63;102067.50;5004719;28;20730;-83
2022/08/11 10:21:10;;;;;;;6.43;3.00;;;;;;;33.05;27.72;102069.22;5004118;28;20733;-82
2022/08/11 10:34:42;;;;;;;5.13;3.17;;;;;;;33.94;27.69;102061.94;5004075;28;20619;-84
2022/08/11 10:37:08;;;;;;;5.13;3.00;;;;;;;33.97;26.76;102058.44;5004034;28;20146;-84
2022/08/11 10:39:36;;;;;;;6.28;3.10;;;;;;;33.68;25.09;102060.13;5004324;28;20054;-84
2022/08/11 10:44:50;;;;;;;4.72;3.00;;;;;;;33.60;25.78;102061.81;5004151;28;20493;-83
2022/08/11 10:47:35;;;;;;;7.97;2.95;;;;;;;33.71;27.64;102059.44;5004352;28;20658;-79
2022/08/11 11:01:13;;;;;;;6.97;3.15;;;;;;;33.62;25.53;102048.25;5003563;28;20407;-82
2022/08/11 11:03:40;;;;;;;5.82;3.13;;;;;;;33.78;26.14;102045.69;5002897;28;20080;-84
2022/08/11 11:06:25;;;;;;;5.10;3.17;;;;;;;34.00;26.02;102043.72;5003006;28;21024;-84
2022/08/11 11:09:07;;;;;;;6.65;2.90;;;;;;;34.04;25.73;102046.63;5003778;28;20044;-82
2022/08/11 11:19:41;;;;;;;4.88;2.80;;;;;;;33.35;24.84;102034.72;5004703;28;20384;-85
2022/08/11 11:24:53;;;;;;;6.13;2.88;;;;;;;33.38;25.68;102034.06;5004168;28;20104;-81
2022/08/11 11:27:22;;;;;;;4.78;2.88;;;;;;;33.34;24.96;102036.72;5004796;28;20124;-82
2022/08/11 11:29:54;;;;;;;6.03;3.00;;;;;;;32.99;23.64;102031.25;5003653;28;20092;-87
2022/08/11 11:32:26;;;;;;;6.05;2.70;;;;;;;33.11;25.10;102028.53;5004623;28;20385;-84
2022/08/11 11:35:12;;;;;;;3.28;2.58;;;;;;;33.11;25.38;102022.91;5004829;28;20038;-81
2022/08/11 11:37:39;;;;;;;7.63;2.70;;;;;;;32.94;23.62;102025.81;5004112;28;20048;-81
2022/08/11 11:40:14;;;;;;;7.65;3.00;;;;;;;33.20;25.59;102016.44;5004097;28;20069;-81
2022/08/11 11:42:43;;;;;;;9.32;2.60;;;;;;;33.09;23.40;102016.84;5004459;28;20029;-82
2022/08/11 11:45:09;;;;;;;5.07;2.63;;;;;;;33.42;23.84;102015.34;4989007;28;20083;-82
2022/08/11 11:47:37;;;;;;;5.03;2.78;;;;;;;33.82;25.28;102018.56;5004400;28;20111;-84
2022/08/11 11:50:06;;;;;;;6.18;2.85;;;;;;;33.87;26.91;102013.88;5004411;28;20398;-80
2022/08/11 11:52:34;;;;;;;5.22;2.53;;;;;;;33.32;23.72;102010.97;4984111;28;20044;-80
2022/08/11 11:55:01;;;;;;;6.03;2.90;;;;;;;33.72;25.19;101998.44;4984311;28;20095;-83
2022/08/11 12:02:59;;;;;;;3.50;2.80;;;;;;;33.65;21.92;101999.00;5008348;28;20056;-83
2022/08/11 12:05:26;;;;;;;5.20;2.58;;;;;;;33.74;23.84;101985.69;5007561;28;20041;-82
2022/08/11 12:10:39;;;;;;;5.82;2.80;;;;;;;33.48;23.08;101988.69;5008119;28;20064;-82
2022/08/11 12:15:51;;;;;;;6.05;2.90;;;;;;;33.23;23.40;101993.31;5005896;28;20048;-83
2022/08/11 12:18:17;;;;;;;5.47;3.05;;;;;;;32.89;23.34;101983.91;5004723;28;20186;-82
2022/08/11 12:20:44;;;;;;;7.32;3.10;;;;;;;32.96;23.86;101987.00;5005078;28;20037;-82
2022/08/11 12:28:42;;;;;;;10.38;2.90;;;;;;;32.57;24.28;101977.75;5003649;28;20342;-85
2022/08/11 12:31:08;;;;;;;8.27;3.00;;;;;;;32.10;24.45;101968.09;5005547;28;20073;-82
2022/08/11 12:33:39;;;;;;;5.32;2.95;;;;;;;32.44;25.14;101968.41;5004664;28;20095;-82
2022/08/11 12:36:08;;;;;;;5.63;3.00;;;;;;;31.66;26.89;101958.94;4988372;28;20044;-83
2022/08/11 12:38:35;;;;;;;5.28;2.85;;;;;;;31.57;26.68;101947.69;5005165;28;20445;-82
2022/08/11 12:46:58;;;;;;;6.05;3.15;;;;;;;31.75;27.49;101948.53;4931375;29;20138;-81
2022/08/11 12:52:20;;;;;;;7.00;2.83;;;;;;;31.10;25.90;101942.69;5004233;28;20095;-83
2022/08/11 12:54:57;;;;;;;6.70;2.90;;;;;;;31.05;27.25;101940.06;4987001;28;20034;-83
2022/08/11 13:05:56;;;;;;;3.78;2.70;;;;;;;30.74;26.46;101921.31;5003906;28;20080;-82
2022/08/11 13:09:02;;;;;;;3.72;2.83;;;;;;;30.74;26.91;101923.31;5003810;28;20575;-82
2022/08/11 13:14:14;;;;;;;5.72;3.20;;;;;;;30.27;27.03;101913.38;4987590;28;20374;-82
2022/08/11 13:19:24;;;;;;;4.68;2.80;;;;;;;30.43;25.92;101904.56;5004031;28;20048;-85
2022/08/11 13:21:52;;;;;;;6.65;2.80;;;;;;;30.42;25.65;101906.56;5003515;28;20042;-84
2022/08/11 13:24:19;;;;;;;5.43;2.70;;;;;;;30.29;26.02;101910.25;5003844;28;20047;-83
2022/08/11 13:26:45;;;;;;;7.05;2.80;;;;;;;30.33;26.20;101904.84;5004196;28;20034;-86
2022/08/11 13:29:13;;;;;;;3.63;2.88;;;;;;;30.29;26.04;101893.50;4984228;28;20726;-83
2022/08/11 13:31:41;;;;;;;4.50;2.85;;;;;;;30.42;26.59;101898.16;5002215;28;20505;-83
2022/08/11 13:34:08;;;;;;;5.18;3.00;;;;;;;30.41;26.45;101885.31;5003862;28;20034;-81
2022/08/11 13:36:34;;;;;;;5.18;2.92;;;;;;;30.44;25.47;101887.50;5003719;28;20046;-82
2022/08/11 13:39:39;;;;;;;3.22;2.83;;;;;;;30.50;25.75;101876.16;4983473;28;20457;-84
2022/08/11 13:42:05;;;;;;;4.18;2.78;;;;;;;30.52;26.20;101885.03;5003577;28;20069;-84
2022/08/11 13:44:35;;;;;;;6.93;2.70;;;;;;;30.30;25.81;101892.31;5003388;28;20434;-83
2022/08/11 13:47:03;;;;;;;4.85;2.80;;;;;;;30.21;25.12;101885.88;5003170;28;20084;-83
2022/08/11 13:49:31;;;;;;;5.90;2.70;;;;;;;30.24;29.01;101879.66;5003237;28;20048;-82
2022/08/11 13:51:57;;;;;;;4.68;2.70;;;;;;;30.18;25.72;101878.13;5002800;28;20070;-83
2022/08/11 13:54:29;;;;;;;4.50;2.78;;;;;;;30.10;25.29;101876.97;5002897;28;20046;-81
2022/08/11 13:56:59;;;;;;;4.97;2.65;;;;;;;30.17;25.89;101876.50;5002627;28;20040;-85
2022/08/11 13:59:26;;;;;;;7.57;2.85;;;;;;;30.08;24.40;101873.63;5003015;28;20428;-82
2022/08/11 14:01:55;;;;;;;3.13;2.83;;;;;;;30.11;25.07;101870.19;5002995;28;20045;-81
2022/08/11 14:04:29;;;;;;;2.75;2.55;;;;;;;30.06;24.42;101868.38;4989352;28;20045;-85
2022/08/11 14:06:58;;;;;;;4.47;2.78;;;;;;;29.96;25.67;101863.06;4986802;28;20049;-82
2022/08/11 14:09:27;;;;;;;3.67;2.90;;;;;;;30.04;25.94;101861.47;5005631;28;20510;-84
2022/08/11 14:14:46;;;;;;;6.60;2.50;;;;;;;30.05;24.92;101855.53;5005233;28;20132;-86
2022/08/11 14:17:15;;;;;;;5.22;2.63;;;;;;;29.98;23.85;101855.19;5004783;28;20030;-83
2022/08/11 14:19:43;;;;;;;2.58;2.30;;;;;;;30.03;26.28;101857.84;5006073;28;20065;-82
2022/08/11 14:22:12;;;;;;;6.20;2.85;;;;;;;30.04;24.60;101865.09;5004208;28;20131;-84
2022/08/11 14:24:39;;;;;;;6.03;2.60;;;;;;;30.07;26.38;101856.06;5003511;28;20041;-82
2022/08/11 14:27:08;;;;;;;4.88;2.92;;;;;;;30.02;25.83;101856.19;5005618;28;20030;-82
2022/08/11 14:29:37;;;;;;;4.38;2.70;;;;;;;30.05;23.89;101851.94;5004990;28;20049;-83
2022/08/11 14:32:06;;;;;;;5.55;2.67;;;;;;;30.10;23.90;101852.63;5006054;28;20680;-81
2022/08/11 14:34:33;;;;;;;4.10;2.70;;;;;;;30.25;24.12;101856.97;4988252;28;20045;-84
2022/08/11 14:37:04;;;;;;;3.40;2.40;;;;;;;30.18;23.20;101850.19;4989435;28;20041;-82
2022/08/11 14:39:37;;;;;;;4.82;2.72;;;;;;;30.24;25.27;101835.75;5004642;28;20037;-81
2022/08/11 14:47:39;;;;;;;3.03;2.60;;;;;;;30.27;25.23;101839.88;5004834;28;21772;-83
2022/08/11 14:50:07;;;;;;;7.38;3.10;;;;;;;30.30;24.92;101839.22;5002582;28;20045;-82
2022/08/11 14:52:33;;;;;;;3.80;2.67;;;;;;;30.21;27.22;101827.19;5004450;28;20041;-84
2022/08/11 14:57:43;;;;;;;3.90;2.85;;;;;;;30.46;25.04;101836.84;5004377;28;20056;-82
2022/08/11 15:00:17;;;;;;;4.47;2.80;;;;;;;30.49;24.08;101841.78;5005001;28;20041;-84
2022/08/11 15:05:30;;;;;;;6.53;2.80;;;;;;;30.60;25.25;101814.34;5004183;28;20051;-83
2022/08/11 15:07:57;;;;;;;4.22;2.65;;;;;;;30.72;25.54;101816.50;5004586;28;20045;-85
2022/08/11 15:10:23;;;;;;;6.78;2.70;;;;;;;30.68;23.93;101816.34;5004133;28;20145;-83
2022/08/11 15:12:49;;;;;;;3.03;2.50;;;;;;;30.58;25.95;101816.66;5004193;28;20048;-81
2022/08/11 15:18:05;;;;;;;5.25;2.75;;;;;;;30.61;25.31;101805.66;5004610;28;21562;-81
2022/08/11 15:26:09;;;;;;;5.95;2.60;;;;;;;30.60;25.08;101800.34;5004001;28;20060;-85
2022/08/11 15:45:48;;;;;;;2.70;2.50;;;;;;;30.24;26.70;101779.84;5006544;28;20832;-83
2022/08/11 15:48:17;;;;;;;6.85;2.60;;;;;;;30.36;25.80;101781.22;5008219;28;20395;-85
2022/08/11 15:50:52;;;;;;;9.52;2.85;;;;;;;30.35;26.51;101783.16;4988297;28;20044;-85
2022/08/11 15:53:27;;;;;;;2.85;2.45;;;;;;;30.27;26.00;101783.97;5008355;28;20108;-83
2022/08/11 15:55:54;;;;;;;3.72;2.67;;;;;;;30.29;26.45;101776.09;5007523;28;20037;-83
2022/08/11 16:04:11;;;;;;;3.63;2.70;;;;;;;29.98;27.42;101776.97;4990606;28;20413;-83
2022/08/11 16:07:10;;;;;;;6.50;2.70;;;;;;;30.08;27.32;101776.69;5008411;28;20038;-81
2022/08/11 16:09:50;;;;;;;6.85;2.70;;;;;;;30.14;26.46;101777.34;5007406;28;20057;-84
2022/08/11 16:12:20;;;;;;;5.45;2.60;;;;;;;30.19;25.22;101762.41;5008126;28;20076;-82
2022/08/11 16:17:41;;;;;;;3.60;2.47;;;;;;;30.08;26.04;101756.28;5008010;28;20052;-80
2022/08/11 16:20:08;;;;;;;3.67;2.60;;;;;;;30.04;30.46;101752.50;5007852;28;20029;-82
2022/08/11 16:22:46;;;;;;;5.95;2.78;;;;;;;30.10;29.50;101760.41;5007420;28;20041;-80
2022/08/11 16:25:22;;;;;;;4.43;2.65;;;;;;;30.04;29.46;101753.31;5007483;28;20125;-83
2022/08/11 16:27:52;;;;;;;6.13;2.53;;;;;;;30.06;29.79;101759.41;4990002;28;20033;-82
2022/08/11 16:30:17;;;;;;;8.02;3.00;;;;;;;30.17;26.54;101754.34;4989062;28;20164;-84
2022/08/11 16:32:45;;;;;;;3.50;2.78;;;;;;;30.16;27.46;101746.28;4989671;28;20489;-82
2022/08/11 16:40:48;;;;;;;2.85;2.58;;;;;;;30.40;26.83;101746.69;5007357;28;20056;-83
2022/08/11 16:48:49;;;;;;;3.90;2.60;;;;;;;30.08;27.47;101748.75;4989609;28;20052;-82
2022/08/11 16:51:16;;;;;;;3.47;2.50;;;;;;;30.10;27.07;101746.44;5004993;28;20498;-86
2022/08/11 16:53:43;;;;;;;3.58;2.40;;;;;;;29.92;29.38;101744.72;5003027;28;20048;-82
2022/08/11 16:56:13;;;;;;;5.25;2.55;;;;;;;29.96;26.33;101740.13;4989273;28;20049;-84